sensor_id;sensor_type;location;lat;lon;timestamp;P1;durP1;ratioP1;P2;durP2;ratioP2
23802;SDS011;12082;51.786;6.018;2023-06-14T00:01:37;11.90;;;10.70;;
23802;SDS011;12082;51.786;6.018;2023-06-14T00:04:03;16.77;;;11.10;;
23802;SDS011;12082;51.786;6.018;2023-06-14T00:06:30;11.80;;;10.87;;
23802;SDS011;12082;51.786;6.018;2023-06-14T00:08:56;11.20;;;10.13;;
23802;SDS011;12082;51.786;6.018;2023-06-14T00:11:22;11.67;;;10.57;;
23802;SDS011;12082;51.786;6.018;2023-06-14T00:13:47;11.93;;;10.73;;
23802;SDS011;12082;51.786;6.018;2023-06-14T00:16:13;11.60;;;10.40;;
23802;SDS011;12082;51.786;6.018;2023-06-14T00:18:38;11.17;;;10.27;;
23802;SDS011;12082;51.786;6.018;2023-06-14T00:21:04;11.43;;;10.43;;
23802;SDS011;12082;51.786;6.018;2023-06-14T00:23:30;11.63;;;10.50;;
23802;SDS011;12082;51.786;6.018;2023-06-14T00:25:56;11.27;;;10.20;;
23802;SDS011;12082;51.786;6.018;2023-06-14T00:28:21;10.60;;;9.80;;
23802;SDS011;12082;51.786;6.018;2023-06-14T00:30:47;11.90;;;10.87;;
23802;SDS011;12082;51.786;6.018;2023-06-14T00:33:12;11.33;;;10.47;;
23802;SDS011;12082;51.786;6.018;2023-06-14T00:35:38;10.40;;;9.50;;
23802;SDS011;12082;51.786;6.018;2023-06-14T00:38:04;11.50;;;10.30;;
23802;SDS011;12082;51.786;6.018;2023-06-14T00:40:30;11.93;;;10.93;;
23802;SDS011;12082;51.786;6.018;2023-06-14T00:42:55;11.70;;;10.60;;
23802;SDS011;12082;51.786;6.018;2023-06-14T00:45:21;11.97;;;10.30;;
23802;SDS011;12082;51.786;6.018;2023-06-14T00:47:46;11.43;;;10.43;;
23802;SDS011;12082;51.786;6.018;2023-06-14T00:50:16;11.33;;;10.43;;
23802;SDS011;12082;51.786;6.018;2023-06-14T00:52:41;11.50;;;10.50;;
23802;SDS011;12082;51.786;6.018;2023-06-14T00:55:07;11.87;;;10.87;;
23802;SDS011;12082;51.786;6.018;2023-06-14T00:57:33;12.03;;;11.10;;
23802;SDS011;12082;51.786;6.018;2023-06-14T01:00:02;11.87;;;10.97;;
23802;SDS011;12082;51.786;6.018;2023-06-14T01:02:33;11.50;;;10.60;;
23802;SDS011;12082;51.786;6.018;2023-06-14T01:04:59;11.20;;;10.30;;
23802;SDS011;12082;51.786;6.018;2023-06-14T01:10:00;13.37;;;11.00;;
23802;SDS011;12082;51.786;6.018;2023-06-14T01:12:56;11.63;;;10.73;;
23802;SDS011;12082;51.786;6.018;2023-06-14T01:15:42;11.43;;;10.53;;
23802;SDS011;12082;51.786;6.018;2023-06-14T01:18:09;11.70;;;10.80;;
23802;SDS011;12082;51.786;6.018;2023-06-14T01:20:42;11.77;;;10.67;;
23802;SDS011;12082;51.786;6.018;2023-06-14T01:23:16;10.97;;;10.17;;
23802;SDS011;12082;51.786;6.018;2023-06-14T01:25:45;12.27;;;10.50;;
23802;SDS011;12082;51.786;6.018;2023-06-14T01:28:12;10.77;;;9.87;;
23802;SDS011;12082;51.786;6.018;2023-06-14T01:30:42;11.80;;;10.63;;
23802;SDS011;12082;51.786;6.018;2023-06-14T01:33:13;11.40;;;10.53;;
23802;SDS011;12082;51.786;6.018;2023-06-14T01:35:46;15.13;;;10.33;;
23802;SDS011;12082;51.786;6.018;2023-06-14T01:38:13;12.07;;;10.67;;
23802;SDS011;12082;51.786;6.018;2023-06-14T01:40:39;11.40;;;10.50;;
23802;SDS011;12082;51.786;6.018;2023-06-14T01:43:07;11.80;;;10.80;;
23802;SDS011;12082;51.786;6.018;2023-06-14T01:45:34;11.40;;;10.50;;
23802;SDS011;12082;51.786;6.018;2023-06-14T01:48:01;11.27;;;10.47;;
23802;SDS011;12082;51.786;6.018;2023-06-14T01:50:28;11.47;;;10.53;;
23802;SDS011;12082;51.786;6.018;2023-06-14T01:52:57;10.73;;;10.00;;
23802;SDS011;12082;51.786;6.018;2023-06-14T01:55:23;11.47;;;10.53;;
23802;SDS011;12082;51.786;6.018;2023-06-14T01:57:49;11.43;;;10.53;;
23802;SDS011;12082;51.786;6.018;2023-06-14T02:00:16;11.03;;;10.13;;
23802;SDS011;12082;51.786;6.018;2023-06-14T02:02:43;11.70;;;10.60;;
23802;SDS011;12082;51.786;6.018;2023-06-14T02:05:09;10.90;;;9.90;;
23802;SDS011;12082;51.786;6.018;2023-06-14T02:07:35;11.23;;;10.20;;
23802;SDS011;12082;51.786;6.018;2023-06-14T02:10:01;11.40;;;10.50;;
23802;SDS011;12082;51.786;6.018;2023-06-14T02:12:27;10.93;;;10.23;;
23802;SDS011;12082;51.786;6.018;2023-06-14T02:14:53;11.33;;;10.37;;
23802;SDS011;12082;51.786;6.018;2023-06-14T02:17:19;11.70;;;10.80;;
23802;SDS011;12082;51.786;6.018;2023-06-14T02:19:45;10.83;;;10.03;;
23802;SDS011;12082;51.786;6.018;2023-06-14T02:22:11;10.90;;;10.10;;
23802;SDS011;12082;51.786;6.018;2023-06-14T02:24:36;11.83;;;10.77;;
23802;SDS011;12082;51.786;6.018;2023-06-14T02:27:02;12.17;;;11.07;;
23802;SDS011;12082;51.786;6.018;2023-06-14T02:29:28;11.87;;;10.33;;
23802;SDS011;12082;51.786;6.018;2023-06-14T02:31:53;10.87;;;10.17;;
23802;SDS011;12082;51.786;6.018;2023-06-14T02:34:19;13.47;;;10.33;;
23802;SDS011;12082;51.786;6.018;2023-06-14T02:36:46;11.80;;;10.70;;
23802;SDS011;12082;51.786;6.018;2023-06-14T02:39:12;10.77;;;9.90;;
23802;SDS011;12082;51.786;6.018;2023-06-14T02:41:38;11.80;;;11.00;;
23802;SDS011;12082;51.786;6.018;2023-06-14T02:44:04;11.03;;;10.23;;
23802;SDS011;12082;51.786;6.018;2023-06-14T02:46:31;10.77;;;10.07;;
23802;SDS011;12082;51.786;6.018;2023-06-14T02:48:56;11.47;;;10.57;;
23802;SDS011;12082;51.786;6.018;2023-06-14T02:51:22;11.37;;;10.30;;
23802;SDS011;12082;51.786;6.018;2023-06-14T02:53:47;11.23;;;10.50;;
23802;SDS011;12082;51.786;6.018;2023-06-14T02:56:13;12.07;;;11.17;;
23802;SDS011;12082;51.786;6.018;2023-06-14T02:58:39;12.27;;;11.40;;
23802;SDS011;12082;51.786;6.018;2023-06-14T03:01:05;12.53;;;11.63;;
23802;SDS011;12082;51.786;6.018;2023-06-14T03:03:32;12.80;;;11.77;;
23802;SDS011;12082;51.786;6.018;2023-06-14T03:05:58;12.90;;;12.00;;
23802;SDS011;12082;51.786;6.018;2023-06-14T03:08:29;12.73;;;11.90;;
23802;SDS011;12082;51.786;6.018;2023-06-14T03:10:55;13.50;;;12.53;;
23802;SDS011;12082;51.786;6.018;2023-06-14T03:13:21;14.03;;;13.07;;
23802;SDS011;12082;51.786;6.018;2023-06-14T03:15:47;13.97;;;12.93;;
23802;SDS011;12082;51.786;6.018;2023-06-14T03:18:15;14.10;;;12.93;;
23802;SDS011;12082;51.786;6.018;2023-06-14T03:20:41;13.80;;;12.77;;
23802;SDS011;12082;51.786;6.018;2023-06-14T03:23:07;14.13;;;13.13;;
23802;SDS011;12082;51.786;6.018;2023-06-14T03:25:33;13.90;;;12.87;;
23802;SDS011;12082;51.786;6.018;2023-06-14T03:28:03;15.60;;;14.50;;
23802;SDS011;12082;51.786;6.018;2023-06-14T03:30:30;16.07;;;14.83;;
23802;SDS011;12082;51.786;6.018;2023-06-14T03:32:56;16.43;;;15.13;;
23802;SDS011;12082;51.786;6.018;2023-06-14T03:35:22;16.00;;;14.80;;
23802;SDS011;12082;51.786;6.018;2023-06-14T03:37:48;15.50;;;14.40;;
23802;SDS011;12082;51.786;6.018;2023-06-14T03:40:15;17.27;;;16.00;;
23802;SDS011;12082;51.786;6.018;2023-06-14T03:42:41;18.40;;;16.90;;
23802;SDS011;12082;51.786;6.018;2023-06-14T03:45:07;18.20;;;17.10;;
23802;SDS011;12082;51.786;6.018;2023-06-14T03:47:33;18.23;;;16.73;;
23802;SDS011;12082;51.786;6.018;2023-06-14T03:49:59;16.53;;;15.33;;
23802;SDS011;12082;51.786;6.018;2023-06-14T03:52:26;16.73;;;15.73;;
23802;SDS011;12082;51.786;6.018;2023-06-14T03:54:52;16.93;;;15.80;;
23802;SDS011;12082;51.786;6.018;2023-06-14T03:57:18;16.33;;;15.07;;
23802;SDS011;12082;51.786;6.018;2023-06-14T03:59:43;15.87;;;14.83;;
23802;SDS011;12082;51.786;6.018;2023-06-14T04:02:09;12.90;;;11.73;;
23802;SDS011;12082;51.786;6.018;2023-06-14T04:04:35;12.00;;;11.10;;
23802;SDS011;12082;51.786;6.018;2023-06-14T04:07:01;11.83;;;10.87;;
23802;SDS011;12082;51.786;6.018;2023-06-14T04:09:28;12.17;;;11.10;;
23802;SDS011;12082;51.786;6.018;2023-06-14T04:11:54;11.80;;;10.90;;
23802;SDS011;12082;51.786;6.018;2023-06-14T04:14:20;11.77;;;10.80;;
23802;SDS011;12082;51.786;6.018;2023-06-14T04:16:47;11.37;;;10.57;;
23802;SDS011;12082;51.786;6.018;2023-06-14T04:19:13;11.70;;;10.80;;
23802;SDS011;12082;51.786;6.018;2023-06-14T04:21:39;12.40;;;11.60;;
23802;SDS011;12082;51.786;6.018;2023-06-14T04:24:05;21.73;;;20.43;;
23802;SDS011;12082;51.786;6.018;2023-06-14T04:26:31;20.37;;;19.17;;
23802;SDS011;12082;51.786;6.018;2023-06-14T04:28:59;22.37;;;20.43;;
23802;SDS011;12082;51.786;6.018;2023-06-14T04:31:28;22.80;;;21.60;;
23802;SDS011;12082;51.786;6.018;2023-06-14T04:33:54;30.10;;;28.20;;
23802;SDS011;12082;51.786;6.018;2023-06-14T04:36:24;39.77;;;37.20;;
23802;SDS011;12082;51.786;6.018;2023-06-14T04:38:51;51.50;;;48.73;;
23802;SDS011;12082;51.786;6.018;2023-06-14T04:41:19;58.37;;;55.23;;
23802;SDS011;12082;51.786;6.018;2023-06-14T04:43:48;58.63;;;55.57;;
23802;SDS011;12082;51.786;6.018;2023-06-14T04:46:14;59.63;;;56.37;;
23802;SDS011;12082;51.786;6.018;2023-06-14T04:48:42;54.37;;;51.33;;
23802;SDS011;12082;51.786;6.018;2023-06-14T04:51:10;32.60;;;30.10;;
23802;SDS011;12082;51.786;6.018;2023-06-14T04:53:36;13.97;;;12.37;;
23802;SDS011;12082;51.786;6.018;2023-06-14T04:56:02;12.47;;;11.57;;
23802;SDS011;12082;51.786;6.018;2023-06-14T04:58:28;12.73;;;11.63;;
23802;SDS011;12082;51.786;6.018;2023-06-14T05:00:54;12.13;;;11.13;;
23802;SDS011;12082;51.786;6.018;2023-06-14T05:03:21;13.07;;;11.87;;
23802;SDS011;12082;51.786;6.018;2023-06-14T05:05:47;12.67;;;11.80;;
23802;SDS011;12082;51.786;6.018;2023-06-14T05:08:13;18.03;;;16.93;;
23802;SDS011;12082;51.786;6.018;2023-06-14T05:10:39;17.13;;;15.77;;
23802;SDS011;12082;51.786;6.018;2023-06-14T05:13:04;12.77;;;11.60;;
23802;SDS011;12082;51.786;6.018;2023-06-14T05:15:30;12.70;;;11.80;;
23802;SDS011;12082;51.786;6.018;2023-06-14T05:17:55;11.93;;;11.07;;
23802;SDS011;12082;51.786;6.018;2023-06-14T05:20:22;13.17;;;11.70;;
23802;SDS011;12082;51.786;6.018;2023-06-14T05:22:49;12.53;;;11.30;;
23802;SDS011;12082;51.786;6.018;2023-06-14T05:25:17;12.27;;;11.30;;
23802;SDS011;12082;51.786;6.018;2023-06-14T05:27:42;12.10;;;11.30;;
23802;SDS011;12082;51.786;6.018;2023-06-14T05:30:08;12.70;;;11.23;;
23802;SDS011;12082;51.786;6.018;2023-06-14T05:32:34;11.33;;;10.53;;
23802;SDS011;12082;51.786;6.018;2023-06-14T05:35:00;12.17;;;11.17;;
23802;SDS011;12082;51.786;6.018;2023-06-14T05:37:25;10.50;;;9.70;;
23802;SDS011;12082;51.786;6.018;2023-06-14T05:39:51;12.27;;;11.33;;
23802;SDS011;12082;51.786;6.018;2023-06-14T05:42:16;14.27;;;9.43;;
23802;SDS011;12082;51.786;6.018;2023-06-14T05:44:42;9.90;;;8.97;;
23802;SDS011;12082;51.786;6.018;2023-06-14T05:47:08;11.50;;;10.47;;
23802;SDS011;12082;51.786;6.018;2023-06-14T05:49:33;12.10;;;11.10;;
23802;SDS011;12082;51.786;6.018;2023-06-14T05:51:59;9.47;;;8.60;;
23802;SDS011;12082;51.786;6.018;2023-06-14T05:54:24;9.93;;;7.97;;
23802;SDS011;12082;51.786;6.018;2023-06-14T05:56:50;8.10;;;6.90;;
23802;SDS011;12082;51.786;6.018;2023-06-14T05:59:16;7.60;;;6.90;;
23802;SDS011;12082;51.786;6.018;2023-06-14T06:01:41;9.27;;;7.17;;
23802;SDS011;12082;51.786;6.018;2023-06-14T06:04:07;8.83;;;7.17;;
23802;SDS011;12082;51.786;6.018;2023-06-14T06:06:32;7.77;;;6.97;;
23802;SDS011;12082;51.786;6.018;2023-06-14T06:08:58;7.10;;;6.50;;
23802;SDS011;12082;51.786;6.018;2023-06-14T06:11:24;7.60;;;6.50;;
23802;SDS011;12082;51.786;6.018;2023-06-14T06:13:49;10.67;;;6.93;;
23802;SDS011;12082;51.786;6.018;2023-06-14T06:16:15;8.63;;;7.60;;
23802;SDS011;12082;51.786;6.018;2023-06-14T06:18:41;8.63;;;7.80;;
23802;SDS011;12082;51.786;6.018;2023-06-14T06:21:06;9.10;;;8.30;;
23802;SDS011;12082;51.786;6.018;2023-06-14T06:23:32;9.97;;;8.20;;
23802;SDS011;12082;51.786;6.018;2023-06-14T06:25:57;8.60;;;7.97;;
23802;SDS011;12082;51.786;6.018;2023-06-14T06:28:23;9.63;;;8.70;;
23802;SDS011;12082;51.786;6.018;2023-06-14T06:30:48;9.70;;;9.00;;
23802;SDS011;12082;51.786;6.018;2023-06-14T06:33:15;10.27;;;9.27;;
23802;SDS011;12082;51.786;6.018;2023-06-14T06:35:41;9.73;;;8.93;;
23802;SDS011;12082;51.786;6.018;2023-06-14T06:38:07;9.73;;;9.13;;
23802;SDS011;12082;51.786;6.018;2023-06-14T06:40:34;9.47;;;8.77;;
23802;SDS011;12082;51.786;6.018;2023-06-14T06:43:01;10.20;;;9.33;;
23802;SDS011;12082;51.786;6.018;2023-06-14T06:45:28;10.60;;;9.77;;
23802;SDS011;12082;51.786;6.018;2023-06-14T06:47:53;10.60;;;9.77;;
23802;SDS011;12082;51.786;6.018;2023-06-14T06:50:20;9.70;;;8.90;;
23802;SDS011;12082;51.786;6.018;2023-06-14T06:52:48;9.13;;;8.53;;
23802;SDS011;12082;51.786;6.018;2023-06-14T06:55:13;9.07;;;8.40;;
23802;SDS011;12082;51.786;6.018;2023-06-14T06:57:39;8.80;;;8.30;;
23802;SDS011;12082;51.786;6.018;2023-06-14T07:00:05;12.37;;;8.47;;
23802;SDS011;12082;51.786;6.018;2023-06-14T07:02:34;12.00;;;8.50;;
23802;SDS011;12082;51.786;6.018;2023-06-14T07:04:59;7.83;;;7.33;;
23802;SDS011;12082;51.786;6.018;2023-06-14T07:07:25;9.40;;;8.50;;
23802;SDS011;12082;51.786;6.018;2023-06-14T07:09:50;7.93;;;7.43;;
23802;SDS011;12082;51.786;6.018;2023-06-14T07:12:16;8.40;;;7.90;;
23802;SDS011;12082;51.786;6.018;2023-06-14T07:14:41;8.00;;;7.43;;
23802;SDS011;12082;51.786;6.018;2023-06-14T07:17:07;9.83;;;9.17;;
23802;SDS011;12082;51.786;6.018;2023-06-14T07:19:32;9.43;;;8.70;;
23802;SDS011;12082;51.786;6.018;2023-06-14T07:21:58;9.20;;;8.70;;
23802;SDS011;12082;51.786;6.018;2023-06-14T07:24:24;9.57;;;8.97;;
23802;SDS011;12082;51.786;6.018;2023-06-14T07:26:49;9.07;;;8.30;;
23802;SDS011;12082;51.786;6.018;2023-06-14T07:29:15;8.73;;;8.03;;
23802;SDS011;12082;51.786;6.018;2023-06-14T07:31:41;9.10;;;8.33;;
23802;SDS011;12082;51.786;6.018;2023-06-14T07:34:07;8.63;;;8.03;;
23802;SDS011;12082;51.786;6.018;2023-06-14T07:36:33;8.93;;;8.13;;
23802;SDS011;12082;51.786;6.018;2023-06-14T07:38:59;8.60;;;7.90;;
23802;SDS011;12082;51.786;6.018;2023-06-14T07:41:27;8.07;;;7.67;;
23802;SDS011;12082;51.786;6.018;2023-06-14T07:43:53;10.07;;;8.10;;
23802;SDS011;12082;51.786;6.018;2023-06-14T07:46:18;8.23;;;7.70;;
23802;SDS011;12082;51.786;6.018;2023-06-14T07:48:44;8.33;;;7.83;;
23802;SDS011;12082;51.786;6.018;2023-06-14T07:51:09;8.77;;;8.27;;
23802;SDS011;12082;51.786;6.018;2023-06-14T07:53:35;9.00;;;8.40;;
23802;SDS011;12082;51.786;6.018;2023-06-14T07:56:00;9.17;;;8.67;;
23802;SDS011;12082;51.786;6.018;2023-06-14T07:58:27;8.33;;;7.93;;
23802;SDS011;12082;51.786;6.018;2023-06-14T08:00:53;9.13;;;8.40;;
23802;SDS011;12082;51.786;6.018;2023-06-14T08:03:18;8.87;;;8.17;;
23802;SDS011;12082;51.786;6.018;2023-06-14T08:05:44;9.87;;;9.23;;
23802;SDS011;12082;51.786;6.018;2023-06-14T08:08:10;10.05;;;9.35;;
23802;SDS011;12082;51.786;6.018;2023-06-14T08:10:35;9.73;;;8.95;;
23802;SDS011;12082;51.786;6.018;2023-06-14T08:13:01;8.77;;;8.27;;
23802;SDS011;12082;51.786;6.018;2023-06-14T08:15:26;9.37;;;8.77;;
23802;SDS011;12082;51.786;6.018;2023-06-14T08:17:52;9.27;;;8.77;;
23802;SDS011;12082;51.786;6.018;2023-06-14T08:20:18;9.70;;;9.10;;
23802;SDS011;12082;51.786;6.018;2023-06-14T08:22:43;10.57;;;9.50;;
23802;SDS011;12082;51.786;6.018;2023-06-14T08:25:11;9.82;;;9.23;;
23802;SDS011;12082;51.786;6.018;2023-06-14T08:27:37;9.73;;;9.13;;
23802;SDS011;12082;51.786;6.018;2023-06-14T08:30:02;10.07;;;9.27;;
23802;SDS011;12082;51.786;6.018;2023-06-14T08:32:29;9.70;;;9.20;;
23802;SDS011;12082;51.786;6.018;2023-06-14T08:34:54;10.15;;;9.48;;
23802;SDS011;12082;51.786;6.018;2023-06-14T08:37:20;10.60;;;9.75;;
23802;SDS011;12082;51.786;6.018;2023-06-14T08:39:45;11.93;;;9.85;;
23802;SDS011;12082;51.786;6.018;2023-06-14T08:42:11;10.15;;;9.55;;
23802;SDS011;12082;51.786;6.018;2023-06-14T08:44:39;10.63;;;9.95;;
23802;SDS011;12082;51.786;6.018;2023-06-14T08:47:05;10.27;;;9.65;;
23802;SDS011;12082;51.786;6.018;2023-06-14T08:49:32;10.68;;;10.07;;
23802;SDS011;12082;51.786;6.018;2023-06-14T08:51:59;10.80;;;10.20;;
23802;SDS011;12082;51.786;6.018;2023-06-14T08:54:25;11.25;;;10.38;;
23802;SDS011;12082;51.786;6.018;2023-06-14T08:56:54;10.52;;;9.93;;
23802;SDS011;12082;51.786;6.018;2023-06-14T08:59:23;13.80;;;10.85;;
23802;SDS011;12082;51.786;6.018;2023-06-14T09:01:52;13.20;;;11.98;;
23802;SDS011;12082;51.786;6.018;2023-06-14T09:04:19;11.68;;;10.48;;
23802;SDS011;12082;51.786;6.018;2023-06-14T09:06:46;11.65;;;10.60;;
23802;SDS011;12082;51.786;6.018;2023-06-14T09:09:17;14.50;;;10.23;;
23802;SDS011;12082;51.786;6.018;2023-06-14T09:11:47;11.73;;;10.80;;
23802;SDS011;12082;51.786;6.018;2023-06-14T09:14:15;10.20;;;9.50;;
23802;SDS011;12082;51.786;6.018;2023-06-14T09:16:40;10.85;;;9.80;;
23802;SDS011;12082;51.786;6.018;2023-06-14T09:19:06;10.32;;;9.38;;
23802;SDS011;12082;51.786;6.018;2023-06-14T09:21:33;11.35;;;10.52;;
23802;SDS011;12082;51.786;6.018;2023-06-14T09:24:01;10.93;;;10.27;;
23802;SDS011;12082;51.786;6.018;2023-06-14T09:26:27;9.90;;;9.40;;
23802;SDS011;12082;51.786;6.018;2023-06-14T09:28:53;10.30;;;9.70;;
23802;SDS011;12082;51.786;6.018;2023-06-14T09:31:20;10.95;;;10.13;;
23802;SDS011;12082;51.786;6.018;2023-06-14T09:33:50;10.63;;;10.02;;
23802;SDS011;12082;51.786;6.018;2023-06-14T09:36:21;10.35;;;9.45;;
23802;SDS011;12082;51.786;6.018;2023-06-14T09:38:55;10.48;;;9.68;;
23802;SDS011;12082;51.786;6.018;2023-06-14T09:44:00;10.68;;;9.70;;
23802;SDS011;12082;51.786;6.018;2023-06-14T09:46:27;10.85;;;9.70;;
23802;SDS011;12082;51.786;6.018;2023-06-14T09:48:54;10.77;;;10.02;;
23802;SDS011;12082;51.786;6.018;2023-06-14T09:51:20;9.93;;;9.10;;
23802;SDS011;12082;51.786;6.018;2023-06-14T09:53:48;9.33;;;8.63;;
23802;SDS011;12082;51.786;6.018;2023-06-14T09:56:57;9.70;;;8.80;;
23802;SDS011;12082;51.786;6.018;2023-06-14T09:59:05;9.60;;;9.10;;
23802;SDS011;12082;51.786;6.018;2023-06-14T10:01:34;8.70;;;8.20;;
23802;SDS011;12082;51.786;6.018;2023-06-14T10:04:03;9.70;;;9.10;;
23802;SDS011;12082;51.786;6.018;2023-06-14T10:06:30;8.70;;;8.00;;
23802;SDS011;12082;51.786;6.018;2023-06-14T10:08:57;9.27;;;7.90;;
23802;SDS011;12082;51.786;6.018;2023-06-14T10:11:27;8.30;;;7.70;;
23802;SDS011;12082;51.786;6.018;2023-06-14T10:13:53;7.90;;;7.40;;
23802;SDS011;12082;51.786;6.018;2023-06-14T10:16:35;8.43;;;7.57;;
23802;SDS011;12082;51.786;6.018;2023-06-14T10:19:28;7.60;;;7.10;;
23802;SDS011;12082;51.786;6.018;2023-06-14T10:22:01;7.90;;;7.30;;
23802;SDS011;12082;51.786;6.018;2023-06-14T10:24:45;7.73;;;7.10;;
23802;SDS011;12082;51.786;6.018;2023-06-14T10:27:13;7.40;;;6.70;;
23802;SDS011;12082;51.786;6.018;2023-06-14T10:32:23;7.27;;;6.70;;
23802;SDS011;12082;51.786;6.018;2023-06-14T10:34:59;7.30;;;6.70;;
23802;SDS011;12082;51.786;6.018;2023-06-14T10:37:26;7.03;;;6.63;;
23802;SDS011;12082;51.786;6.018;2023-06-14T10:39:52;7.90;;;7.30;;
23802;SDS011;12082;51.786;6.018;2023-06-14T10:42:18;7.60;;;7.10;;
23802;SDS011;12082;51.786;6.018;2023-06-14T10:44:54;6.80;;;6.40;;
23802;SDS011;12082;51.786;6.018;2023-06-14T10:47:24;9.47;;;6.67;;
23802;SDS011;12082;51.786;6.018;2023-06-14T10:49:52;6.47;;;6.07;;
23802;SDS011;12082;51.786;6.018;2023-06-14T10:52:26;8.90;;;6.73;;
23802;SDS011;12082;51.786;6.018;2023-06-14T10:57:21;7.13;;;6.53;;
23802;SDS011;12082;51.786;6.018;2023-06-14T10:59:47;6.77;;;6.10;;
23802;SDS011;12082;51.786;6.018;2023-06-14T11:04:50;6.83;;;6.40;;
23802;SDS011;12082;51.786;6.018;2023-06-14T11:13:01;8.23;;;7.63;;
23802;SDS011;12082;51.786;6.018;2023-06-14T11:15:31;6.50;;;6.20;;
23802;SDS011;12082;51.786;6.018;2023-06-14T11:17:57;7.27;;;6.60;;
23802;SDS011;12082;51.786;6.018;2023-06-14T11:20:26;8.33;;;6.50;;
23802;SDS011;12082;51.786;6.018;2023-06-14T11:22:52;6.53;;;6.13;;
23802;SDS011;12082;51.786;6.018;2023-06-14T11:25:19;7.47;;;6.97;;
23802;SDS011;12082;51.786;6.018;2023-06-14T11:27:45;7.03;;;6.40;;
23802;SDS011;12082;51.786;6.018;2023-06-14T11:30:11;7.20;;;6.70;;
23802;SDS011;12082;51.786;6.018;2023-06-14T11:32:38;7.30;;;6.80;;
23802;SDS011;12082;51.786;6.018;2023-06-14T11:35:04;6.93;;;6.37;;
23802;SDS011;12082;51.786;6.018;2023-06-14T11:37:31;7.20;;;6.60;;
23802;SDS011;12082;51.786;6.018;2023-06-14T11:40:02;35.63;;;10.67;;
23802;SDS011;12082;51.786;6.018;2023-06-14T11:42:32;6.70;;;6.13;;
23802;SDS011;12082;51.786;6.018;2023-06-14T11:44:58;6.60;;;6.07;;
23802;SDS011;12082;51.786;6.018;2023-06-14T11:47:24;5.83;;;5.33;;
23802;SDS011;12082;51.786;6.018;2023-06-14T11:49:58;8.23;;;5.83;;
23802;SDS011;12082;51.786;6.018;2023-06-14T11:52:23;6.10;;;5.70;;
23802;SDS011;12082;51.786;6.018;2023-06-14T11:54:49;6.53;;;6.13;;
23802;SDS011;12082;51.786;6.018;2023-06-14T11:57:15;6.53;;;5.93;;
23802;SDS011;12082;51.786;6.018;2023-06-14T11:59:43;6.07;;;5.57;;
23802;SDS011;12082;51.786;6.018;2023-06-14T12:02:13;6.40;;;6.00;;
23802;SDS011;12082;51.786;6.018;2023-06-14T12:04:43;5.40;;;5.10;;
23802;SDS011;12082;51.786;6.018;2023-06-14T12:07:12;12.07;;;6.70;;
23802;SDS011;12082;51.786;6.018;2023-06-14T12:12:23;6.40;;;5.90;;
23802;SDS011;12082;51.786;6.018;2023-06-14T12:14:54;5.87;;;5.43;;
23802;SDS011;12082;51.786;6.018;2023-06-14T12:17:21;5.57;;;4.93;;
23802;SDS011;12082;51.786;6.018;2023-06-14T12:19:48;5.90;;;5.33;;
23802;SDS011;12082;51.786;6.018;2023-06-14T12:22:15;5.63;;;5.23;;
23802;SDS011;12082;51.786;6.018;2023-06-14T12:24:45;5.60;;;5.20;;
23802;SDS011;12082;51.786;6.018;2023-06-14T12:27:11;5.57;;;4.67;;
23802;SDS011;12082;51.786;6.018;2023-06-14T12:29:40;5.37;;;4.80;;
23802;SDS011;12082;51.786;6.018;2023-06-14T12:32:08;5.20;;;4.80;;
23802;SDS011;12082;51.786;6.018;2023-06-14T12:34:34;6.30;;;5.40;;
23802;SDS011;12082;51.786;6.018;2023-06-14T12:37:00;7.87;;;5.27;;
23802;SDS011;12082;51.786;6.018;2023-06-14T12:39:26;5.77;;;5.20;;
23802;SDS011;12082;51.786;6.018;2023-06-14T12:41:52;6.83;;;6.23;;
23802;SDS011;12082;51.786;6.018;2023-06-14T12:44:19;5.17;;;4.97;;
23802;SDS011;12082;51.786;6.018;2023-06-14T12:46:45;5.77;;;5.27;;
23802;SDS011;12082;51.786;6.018;2023-06-14T12:49:12;5.80;;;5.30;;
23802;SDS011;12082;51.786;6.018;2023-06-14T12:51:38;5.60;;;5.20;;
23802;SDS011;12082;51.786;6.018;2023-06-14T12:54:05;5.43;;;5.10;;
23802;SDS011;12082;51.786;6.018;2023-06-14T12:56:31;5.73;;;5.10;;
23802;SDS011;12082;51.786;6.018;2023-06-14T12:58:56;6.40;;;5.10;;
23802;SDS011;12082;51.786;6.018;2023-06-14T13:01:22;6.17;;;4.83;;
23802;SDS011;12082;51.786;6.018;2023-06-14T13:03:48;5.20;;;4.90;;
23802;SDS011;12082;51.786;6.018;2023-06-14T13:06:16;6.23;;;5.73;;
23802;SDS011;12082;51.786;6.018;2023-06-14T13:08:42;14.13;;;5.30;;
23802;SDS011;12082;51.786;6.018;2023-06-14T13:11:08;5.93;;;5.47;;
23802;SDS011;12082;51.786;6.018;2023-06-14T13:13:33;6.83;;;5.30;;
23802;SDS011;12082;51.786;6.018;2023-06-14T13:15:59;6.00;;;5.50;;
23802;SDS011;12082;51.786;6.018;2023-06-14T13:18:25;5.40;;;5.10;;
23802;SDS011;12082;51.786;6.018;2023-06-14T13:20:51;8.20;;;5.43;;
23802;SDS011;12082;51.786;6.018;2023-06-14T13:23:16;5.53;;;5.10;;
23802;SDS011;12082;51.786;6.018;2023-06-14T13:25:42;7.50;;;5.23;;
23802;SDS011;12082;51.786;6.018;2023-06-14T13:28:08;5.30;;;5.00;;
23802;SDS011;12082;51.786;6.018;2023-06-14T13:30:34;5.90;;;5.40;;
23802;SDS011;12082;51.786;6.018;2023-06-14T13:33:00;5.60;;;5.30;;
23802;SDS011;12082;51.786;6.018;2023-06-14T13:35:26;5.60;;;5.30;;
23802;SDS011;12082;51.786;6.018;2023-06-14T13:37:52;5.60;;;5.30;;
23802;SDS011;12082;51.786;6.018;2023-06-14T13:40:18;6.00;;;5.50;;
23802;SDS011;12082;51.786;6.018;2023-06-14T13:42:43;9.60;;;5.23;;
23802;SDS011;12082;51.786;6.018;2023-06-14T13:45:11;5.40;;;5.10;;
23802;SDS011;12082;51.786;6.018;2023-06-14T13:47:38;5.10;;;4.90;;
23802;SDS011;12082;51.786;6.018;2023-06-14T13:50:04;5.70;;;5.40;;
23802;SDS011;12082;51.786;6.018;2023-06-14T13:52:30;6.20;;;5.70;;
23802;SDS011;12082;51.786;6.018;2023-06-14T13:54:56;5.93;;;5.53;;
23802;SDS011;12082;51.786;6.018;2023-06-14T13:57:22;5.97;;;5.50;;
23802;SDS011;12082;51.786;6.018;2023-06-14T13:59:47;5.60;;;5.10;;
23802;SDS011;12082;51.786;6.018;2023-06-14T14:02:13;5.50;;;5.20;;
23802;SDS011;12082;51.786;6.018;2023-06-14T14:04:39;6.47;;;5.90;;
23802;SDS011;12082;51.786;6.018;2023-06-14T14:07:06;6.20;;;5.80;;
23802;SDS011;12082;51.786;6.018;2023-06-14T14:09:32;5.97;;;5.57;;
23802;SDS011;12082;51.786;6.018;2023-06-14T14:12:02;15.07;;;5.70;;
23802;SDS011;12082;51.786;6.018;2023-06-14T14:14:29;6.03;;;5.70;;
23802;SDS011;12082;51.786;6.018;2023-06-14T14:16:55;5.83;;;5.37;;
23802;SDS011;12082;51.786;6.018;2023-06-14T14:19:21;7.87;;;6.00;;
23802;SDS011;12082;51.786;6.018;2023-06-14T14:21:47;6.47;;;5.97;;
23802;SDS011;12082;51.786;6.018;2023-06-14T14:24:12;6.33;;;5.63;;
23802;SDS011;12082;51.786;6.018;2023-06-14T14:26:38;6.87;;;4.80;;
23802;SDS011;12082;51.786;6.018;2023-06-14T14:29:04;5.93;;;5.63;;
23802;SDS011;12082;51.786;6.018;2023-06-14T14:31:30;14.63;;;6.10;;
23802;SDS011;12082;51.786;6.018;2023-06-14T14:33:56;6.57;;;5.33;;
23802;SDS011;12082;51.786;6.018;2023-06-14T14:36:21;5.80;;;5.40;;
23802;SDS011;12082;51.786;6.018;2023-06-14T14:38:47;6.00;;;5.70;;
23802;SDS011;12082;51.786;6.018;2023-06-14T14:41:13;5.50;;;5.20;;
23802;SDS011;12082;51.786;6.018;2023-06-14T14:43:39;5.60;;;5.27;;
23802;SDS011;12082;51.786;6.018;2023-06-14T14:46:05;8.90;;;5.80;;
23802;SDS011;12082;51.786;6.018;2023-06-14T14:48:30;5.70;;;5.40;;
23802;SDS011;12082;51.786;6.018;2023-06-14T14:50:56;6.13;;;5.63;;
23802;SDS011;12082;51.786;6.018;2023-06-14T14:53:22;5.80;;;5.50;;
23802;SDS011;12082;51.786;6.018;2023-06-14T14:55:48;7.30;;;5.50;;